KHNR

Harlan Municipal Airport

Harlan, Iowa, USA
METAR KHNR 231235Z AUTO 00000KT 10SM CLR M01/M02 A3036 RMK AO2
Observed Flight Rules
Oct-23 @ 12:35 UTC (9 minutes ago) Visual Flight Rules
Visibility Clouds
10 miles
  • Clear skies
Temperatures Readings
Current -1°C / 30°F
Dewpoint -2°C / 28°F
Humidity 93%
Altimeter 30.36" Hg
Pressure 1028 hPa
Elevation 375
METAR KHNR 231235Z AUTO 00000KT 10SM CLR M01/M02 A3036 RMK AO2
Observed Flight Rules
Oct-23 @ 12:35 UTC
(9 minutes ago)
VFR
Clouds
  • Clear skies
Temperature Dewpoint
-1°C / 30°F -2°C / 28°F
Humidity Altimeter Pressure
93% 30.36" Hg 1028 hPa